sensor_id;sensor_type;location;lat;lon;timestamp;P1;durP1;ratioP1;P2;durP2;ratioP2
77868;SDS011;67231;59.144;37.934;2024-03-08T00:00:06;5.65;;;2.17;;
77868;SDS011;67231;59.144;37.934;2024-03-08T00:02:39;5.30;;;1.70;;
77868;SDS011;67231;59.144;37.934;2024-03-08T00:05:06;6.30;;;2.47;;
77868;SDS011;67231;59.144;37.934;2024-03-08T00:07:37;2.97;;;1.60;;
77868;SDS011;67231;59.144;37.934;2024-03-08T00:10:05;6.57;;;2.35;;
77868;SDS011;67231;59.144;37.934;2024-03-08T00:12:38;6.28;;;2.38;;
77868;SDS011;67231;59.144;37.934;2024-03-08T00:15:08;5.13;;;2.45;;
77868;SDS011;67231;59.144;37.934;2024-03-08T00:17:36;4.97;;;2.30;;
77868;SDS011;67231;59.144;37.934;2024-03-08T00:20:04;6.20;;;2.80;;
77868;SDS011;67231;59.144;37.934;2024-03-08T00:22:34;6.70;;;2.35;;
77868;SDS011;67231;59.144;37.934;2024-03-08T00:25:02;5.05;;;2.17;;
77868;SDS011;67231;59.144;37.934;2024-03-08T00:27:30;4.97;;;2.30;;
77868;SDS011;67231;59.144;37.934;2024-03-08T00:29:57;4.45;;;2.08;;
77868;SDS011;67231;59.144;37.934;2024-03-08T00:32:24;6.53;;;2.45;;
77868;SDS011;67231;59.144;37.934;2024-03-08T00:34:51;3.22;;;1.63;;
77868;SDS011;67231;59.144;37.934;2024-03-08T00:37:23;7.22;;;2.53;;
77868;SDS011;67231;59.144;37.934;2024-03-08T00:39:51;5.90;;;2.67;;
77868;SDS011;67231;59.144;37.934;2024-03-08T00:42:18;5.90;;;2.70;;
77868;SDS011;67231;59.144;37.934;2024-03-08T00:44:46;5.38;;;1.77;;
77868;SDS011;67231;59.144;37.934;2024-03-08T00:47:14;6.80;;;2.70;;
77868;SDS011;67231;59.144;37.934;2024-03-08T00:49:41;4.38;;;1.95;;
77868;SDS011;67231;59.144;37.934;2024-03-08T00:52:08;6.40;;;2.65;;
77868;SDS011;67231;59.144;37.934;2024-03-08T00:54:35;5.10;;;2.40;;
77868;SDS011;67231;59.144;37.934;2024-03-08T00:57:04;7.20;;;2.60;;
77868;SDS011;67231;59.144;37.934;2024-03-08T00:59:33;4.43;;;2.00;;
77868;SDS011;67231;59.144;37.934;2024-03-08T01:02:00;5.20;;;2.20;;
77868;SDS011;67231;59.144;37.934;2024-03-08T01:04:27;6.32;;;2.35;;
77868;SDS011;67231;59.144;37.934;2024-03-08T01:06:58;4.05;;;1.88;;
77868;SDS011;67231;59.144;37.934;2024-03-08T01:09:25;5.18;;;2.42;;
77868;SDS011;67231;59.144;37.934;2024-03-08T01:11:54;3.92;;;2.00;;
77868;SDS011;67231;59.144;37.934;2024-03-08T01:14:22;5.65;;;2.25;;
77868;SDS011;67231;59.144;37.934;2024-03-08T01:19:23;5.18;;;2.40;;
77868;SDS011;67231;59.144;37.934;2024-03-08T01:21:50;6.05;;;2.50;;
77868;SDS011;67231;59.144;37.934;2024-03-08T01:24:17;5.10;;;2.00;;
77868;SDS011;67231;59.144;37.934;2024-03-08T01:26:43;7.18;;;2.38;;
77868;SDS011;67231;59.144;37.934;2024-03-08T01:29:10;6.50;;;2.50;;
77868;SDS011;67231;59.144;37.934;2024-03-08T01:31:37;4.75;;;2.10;;
77868;SDS011;67231;59.144;37.934;2024-03-08T01:34:04;5.07;;;2.22;;
77868;SDS011;67231;59.144;37.934;2024-03-08T01:36:30;5.55;;;2.65;;
77868;SDS011;67231;59.144;37.934;2024-03-08T01:38:57;5.13;;;2.33;;
77868;SDS011;67231;59.144;37.934;2024-03-08T01:41:23;4.95;;;2.20;;
77868;SDS011;67231;59.144;37.934;2024-03-08T01:43:50;3.85;;;1.70;;
77868;SDS011;67231;59.144;37.934;2024-03-08T01:46:17;7.38;;;2.30;;
77868;SDS011;67231;59.144;37.934;2024-03-08T01:48:50;7.30;;;2.50;;
77868;SDS011;67231;59.144;37.934;2024-03-08T01:51:17;5.97;;;2.30;;
77868;SDS011;67231;59.144;37.934;2024-03-08T01:53:44;4.80;;;2.78;;
77868;SDS011;67231;59.144;37.934;2024-03-08T01:56:13;5.18;;;2.70;;
77868;SDS011;67231;59.144;37.934;2024-03-08T01:58:43;3.83;;;1.92;;
77868;SDS011;67231;59.144;37.934;2024-03-08T02:01:13;6.10;;;2.20;;
77868;SDS011;67231;59.144;37.934;2024-03-08T02:03:45;4.25;;;2.22;;
77868;SDS011;67231;59.144;37.934;2024-03-08T02:06:12;6.82;;;2.92;;
77868;SDS011;67231;59.144;37.934;2024-03-08T02:08:41;5.93;;;3.17;;
77868;SDS011;67231;59.144;37.934;2024-03-08T02:11:10;7.65;;;2.83;;
77868;SDS011;67231;59.144;37.934;2024-03-08T02:13:37;3.38;;;1.90;;
77868;SDS011;67231;59.144;37.934;2024-03-08T02:16:03;6.82;;;2.58;;
77868;SDS011;67231;59.144;37.934;2024-03-08T02:18:34;7.97;;;2.72;;
77868;SDS011;67231;59.144;37.934;2024-03-08T02:21:01;4.40;;;2.13;;
77868;SDS011;67231;59.144;37.934;2024-03-08T02:23:29;5.00;;;2.50;;
77868;SDS011;67231;59.144;37.934;2024-03-08T02:25:56;6.47;;;2.65;;
77868;SDS011;67231;59.144;37.934;2024-03-08T02:28:23;5.25;;;2.78;;
77868;SDS011;67231;59.144;37.934;2024-03-08T02:30:55;6.38;;;2.40;;
77868;SDS011;67231;59.144;37.934;2024-03-08T02:33:23;5.90;;;2.47;;
77868;SDS011;67231;59.144;37.934;2024-03-08T02:35:50;5.75;;;2.70;;
77868;SDS011;67231;59.144;37.934;2024-03-08T02:38:18;7.75;;;2.97;;
77868;SDS011;67231;59.144;37.934;2024-03-08T02:40:47;5.78;;;2.90;;
77868;SDS011;67231;59.144;37.934;2024-03-08T02:43:16;5.85;;;3.05;;
77868;SDS011;67231;59.144;37.934;2024-03-08T02:45:44;6.57;;;2.88;;
77868;SDS011;67231;59.144;37.934;2024-03-08T02:48:14;6.20;;;2.60;;
77868;SDS011;67231;59.144;37.934;2024-03-08T02:50:42;6.78;;;3.20;;
77868;SDS011;67231;59.144;37.934;2024-03-08T02:53:11;7.50;;;2.90;;
77868;SDS011;67231;59.144;37.934;2024-03-08T02:55:39;6.65;;;2.58;;
77868;SDS011;67231;59.144;37.934;2024-03-08T02:58:07;6.47;;;2.67;;
77868;SDS011;67231;59.144;37.934;2024-03-08T03:00:38;7.85;;;2.63;;
77868;SDS011;67231;59.144;37.934;2024-03-08T03:03:05;6.78;;;2.90;;
77868;SDS011;67231;59.144;37.934;2024-03-08T03:05:33;6.07;;;2.85;;
77868;SDS011;67231;59.144;37.934;2024-03-08T03:08:00;7.43;;;2.78;;
77868;SDS011;67231;59.144;37.934;2024-03-08T03:10:27;5.78;;;2.70;;
77868;SDS011;67231;59.144;37.934;2024-03-08T03:12:53;6.57;;;3.08;;
77868;SDS011;67231;59.144;37.934;2024-03-08T03:15:20;8.10;;;3.22;;
77868;SDS011;67231;59.144;37.934;2024-03-08T03:17:47;8.38;;;4.10;;
77868;SDS011;67231;59.144;37.934;2024-03-08T03:20:17;10.38;;;4.10;;
77868;SDS011;67231;59.144;37.934;2024-03-08T03:22:58;5.50;;;2.33;;
77868;SDS011;67231;59.144;37.934;2024-03-08T03:25:27;6.95;;;3.17;;
77868;SDS011;67231;59.144;37.934;2024-03-08T03:28:07;7.13;;;3.20;;
77868;SDS011;67231;59.144;37.934;2024-03-08T03:30:34;6.30;;;2.90;;
77868;SDS011;67231;59.144;37.934;2024-03-08T03:33:01;6.80;;;2.97;;
77868;SDS011;67231;59.144;37.934;2024-03-08T03:35:33;6.50;;;2.95;;
77868;SDS011;67231;59.144;37.934;2024-03-08T03:38:00;8.20;;;3.75;;
77868;SDS011;67231;59.144;37.934;2024-03-08T03:40:33;6.40;;;2.83;;
77868;SDS011;67231;59.144;37.934;2024-03-08T03:43:01;6.47;;;2.58;;
77868;SDS011;67231;59.144;37.934;2024-03-08T03:45:29;6.43;;;2.97;;
77868;SDS011;67231;59.144;37.934;2024-03-08T03:47:56;7.63;;;3.17;;
77868;SDS011;67231;59.144;37.934;2024-03-08T03:50:22;5.85;;;2.28;;
77868;SDS011;67231;59.144;37.934;2024-03-08T03:52:49;5.50;;;2.70;;
77868;SDS011;67231;59.144;37.934;2024-03-08T03:55:16;6.35;;;2.63;;
77868;SDS011;67231;59.144;37.934;2024-03-08T03:57:44;5.03;;;2.40;;
77868;SDS011;67231;59.144;37.934;2024-03-08T04:00:11;4.97;;;2.35;;
77868;SDS011;67231;59.144;37.934;2024-03-08T04:02:42;8.00;;;2.85;;
77868;SDS011;67231;59.144;37.934;2024-03-08T04:05:10;8.82;;;2.90;;
77868;SDS011;67231;59.144;37.934;2024-03-08T04:07:37;6.85;;;2.50;;
77868;SDS011;67231;59.144;37.934;2024-03-08T04:10:06;5.10;;;2.70;;
77868;SDS011;67231;59.144;37.934;2024-03-08T04:12:34;6.55;;;2.42;;
77868;SDS011;67231;59.144;37.934;2024-03-08T04:15:00;6.35;;;2.78;;
77868;SDS011;67231;59.144;37.934;2024-03-08T04:17:30;9.50;;;3.22;;
77868;SDS011;67231;59.144;37.934;2024-03-08T04:19:57;10.15;;;3.75;;
77868;SDS011;67231;59.144;37.934;2024-03-08T04:22:23;11.13;;;3.90;;
77868;SDS011;67231;59.144;37.934;2024-03-08T04:24:50;9.07;;;4.00;;
77868;SDS011;67231;59.144;37.934;2024-03-08T04:27:17;15.43;;;4.85;;
77868;SDS011;67231;59.144;37.934;2024-03-08T04:29:43;14.93;;;4.80;;
77868;SDS011;67231;59.144;37.934;2024-03-08T04:32:10;7.75;;;3.15;;
77868;SDS011;67231;59.144;37.934;2024-03-08T04:34:36;8.77;;;3.53;;
77868;SDS011;67231;59.144;37.934;2024-03-08T04:37:03;4.30;;;2.20;;
77868;SDS011;67231;59.144;37.934;2024-03-08T04:42:01;5.57;;;2.92;;
77868;SDS011;67231;59.144;37.934;2024-03-08T04:44:36;5.65;;;3.00;;
77868;SDS011;67231;59.144;37.934;2024-03-08T04:47:06;4.90;;;2.50;;
77868;SDS011;67231;59.144;37.934;2024-03-08T04:49:33;6.00;;;3.25;;
77868;SDS011;67231;59.144;37.934;2024-03-08T04:54:29;5.20;;;2.58;;
77868;SDS011;67231;59.144;37.934;2024-03-08T04:56:57;5.32;;;2.60;;
77868;SDS011;67231;59.144;37.934;2024-03-08T04:59:26;6.15;;;2.90;;
77868;SDS011;67231;59.144;37.934;2024-03-08T05:01:54;9.23;;;3.67;;
77868;SDS011;67231;59.144;37.934;2024-03-08T05:04:20;9.07;;;4.05;;
77868;SDS011;67231;59.144;37.934;2024-03-08T05:06:47;11.18;;;4.38;;
77868;SDS011;67231;59.144;37.934;2024-03-08T05:09:14;14.93;;;5.75;;
77868;SDS011;67231;59.144;37.934;2024-03-08T05:11:45;12.77;;;5.03;;
77868;SDS011;67231;59.144;37.934;2024-03-08T05:14:13;15.07;;;5.00;;
77868;SDS011;67231;59.144;37.934;2024-03-08T05:16:46;14.30;;;5.05;;
77868;SDS011;67231;59.144;37.934;2024-03-08T05:19:15;11.07;;;4.70;;
77868;SDS011;67231;59.144;37.934;2024-03-08T05:21:46;14.63;;;5.13;;
77868;SDS011;67231;59.144;37.934;2024-03-08T05:24:14;10.10;;;4.30;;
77868;SDS011;67231;59.144;37.934;2024-03-08T05:26:41;10.35;;;4.40;;
77868;SDS011;67231;59.144;37.934;2024-03-08T05:29:08;10.20;;;4.20;;
77868;SDS011;67231;59.144;37.934;2024-03-08T05:31:53;11.20;;;5.07;;
77868;SDS011;67231;59.144;37.934;2024-03-08T05:34:20;6.22;;;2.65;;
77868;SDS011;67231;59.144;37.934;2024-03-08T05:36:48;9.93;;;3.55;;
77868;SDS011;67231;59.144;37.934;2024-03-08T05:39:18;6.97;;;3.20;;
77868;SDS011;67231;59.144;37.934;2024-03-08T05:41:45;6.50;;;3.00;;
77868;SDS011;67231;59.144;37.934;2024-03-08T05:44:13;5.82;;;3.05;;
77868;SDS011;67231;59.144;37.934;2024-03-08T05:46:40;6.30;;;2.80;;
77868;SDS011;67231;59.144;37.934;2024-03-08T05:49:07;8.90;;;2.95;;
77868;SDS011;67231;59.144;37.934;2024-03-08T05:51:37;7.57;;;3.10;;
77868;SDS011;67231;59.144;37.934;2024-03-08T05:54:05;5.63;;;3.00;;
77868;SDS011;67231;59.144;37.934;2024-03-08T05:56:39;9.40;;;3.53;;
77868;SDS011;67231;59.144;37.934;2024-03-08T05:59:10;15.02;;;4.68;;
77868;SDS011;67231;59.144;37.934;2024-03-08T06:01:37;10.63;;;4.47;;
77868;SDS011;67231;59.144;37.934;2024-03-08T06:04:04;12.95;;;4.30;;
77868;SDS011;67231;59.144;37.934;2024-03-08T06:06:30;13.25;;;4.55;;
77868;SDS011;67231;59.144;37.934;2024-03-08T06:08:57;13.20;;;4.22;;
77868;SDS011;67231;59.144;37.934;2024-03-08T06:11:25;8.88;;;3.60;;
77868;SDS011;67231;59.144;37.934;2024-03-08T06:13:56;11.45;;;4.53;;
77868;SDS011;67231;59.144;37.934;2024-03-08T06:16:26;8.38;;;3.70;;
77868;SDS011;67231;59.144;37.934;2024-03-08T06:18:56;8.02;;;3.55;;
77868;SDS011;67231;59.144;37.934;2024-03-08T06:21:24;7.20;;;3.08;;
77868;SDS011;67231;59.144;37.934;2024-03-08T06:23:53;6.57;;;2.70;;
77868;SDS011;67231;59.144;37.934;2024-03-08T06:26:26;13.02;;;6.03;;
77868;SDS011;67231;59.144;37.934;2024-03-08T06:28:54;8.32;;;2.80;;
77868;SDS011;67231;59.144;37.934;2024-03-08T06:31:22;7.32;;;4.25;;
77868;SDS011;67231;59.144;37.934;2024-03-08T06:33:49;6.88;;;3.08;;
77868;SDS011;67231;59.144;37.934;2024-03-08T06:36:18;11.02;;;3.78;;
77868;SDS011;67231;59.144;37.934;2024-03-08T06:38:48;7.72;;;3.20;;
77868;SDS011;67231;59.144;37.934;2024-03-08T06:41:15;10.88;;;3.97;;
77868;SDS011;67231;59.144;37.934;2024-03-08T06:43:45;7.53;;;3.58;;
77868;SDS011;67231;59.144;37.934;2024-03-08T06:46:15;7.78;;;3.08;;
77868;SDS011;67231;59.144;37.934;2024-03-08T06:48:41;6.75;;;3.35;;
77868;SDS011;67231;59.144;37.934;2024-03-08T06:51:08;7.07;;;3.00;;
77868;SDS011;67231;59.144;37.934;2024-03-08T06:53:37;5.70;;;2.80;;
77868;SDS011;67231;59.144;37.934;2024-03-08T06:56:10;6.03;;;2.40;;
77868;SDS011;67231;59.144;37.934;2024-03-08T06:58:36;6.53;;;2.40;;
77868;SDS011;67231;59.144;37.934;2024-03-08T07:01:03;8.07;;;2.88;;
77868;SDS011;67231;59.144;37.934;2024-03-08T07:03:33;5.55;;;2.40;;
77868;SDS011;67231;59.144;37.934;2024-03-08T07:06:00;6.00;;;2.22;;
77868;SDS011;67231;59.144;37.934;2024-03-08T07:08:32;3.80;;;1.75;;
77868;SDS011;67231;59.144;37.934;2024-03-08T07:10:59;3.58;;;2.03;;
77868;SDS011;67231;59.144;37.934;2024-03-08T07:13:26;4.32;;;2.10;;
77868;SDS011;67231;59.144;37.934;2024-03-08T07:15:55;6.57;;;2.05;;
77868;SDS011;67231;59.144;37.934;2024-03-08T07:18:22;4.75;;;2.13;;
77868;SDS011;67231;59.144;37.934;2024-03-08T07:20:49;4.30;;;2.00;;
77868;SDS011;67231;59.144;37.934;2024-03-08T07:23:15;5.18;;;2.28;;
77868;SDS011;67231;59.144;37.934;2024-03-08T07:26:00;7.78;;;2.28;;
77868;SDS011;67231;59.144;37.934;2024-03-08T07:28:27;6.30;;;2.30;;
77868;SDS011;67231;59.144;37.934;2024-03-08T07:30:57;8.77;;;2.90;;
77868;SDS011;67231;59.144;37.934;2024-03-08T07:33:42;4.75;;;2.15;;
77868;SDS011;67231;59.144;37.934;2024-03-08T07:36:09;6.95;;;2.30;;
77868;SDS011;67231;59.144;37.934;2024-03-08T07:38:35;3.95;;;1.77;;
77868;SDS011;67231;59.144;37.934;2024-03-08T07:41:02;3.83;;;2.00;;
77868;SDS011;67231;59.144;37.934;2024-03-08T07:43:29;4.65;;;1.88;;
77868;SDS011;67231;59.144;37.934;2024-03-08T07:45:56;3.15;;;1.52;;
77868;SDS011;67231;59.144;37.934;2024-03-08T07:48:23;4.03;;;1.70;;
77868;SDS011;67231;59.144;37.934;2024-03-08T07:50:49;2.88;;;1.60;;
77868;SDS011;67231;59.144;37.934;2024-03-08T07:53:16;3.38;;;1.63;;
77868;SDS011;67231;59.144;37.934;2024-03-08T07:55:45;3.22;;;1.70;;
77868;SDS011;67231;59.144;37.934;2024-03-08T07:58:11;8.38;;;4.15;;
77868;SDS011;67231;59.144;37.934;2024-03-08T08:00:39;4.90;;;1.70;;
77868;SDS011;67231;59.144;37.934;2024-03-08T08:03:08;8.00;;;1.95;;
77868;SDS011;67231;59.144;37.934;2024-03-08T08:05:35;3.65;;;1.70;;
77868;SDS011;67231;59.144;37.934;2024-03-08T08:08:05;2.30;;;1.27;;
77868;SDS011;67231;59.144;37.934;2024-03-08T08:10:32;3.70;;;1.50;;
77868;SDS011;67231;59.144;37.934;2024-03-08T08:12:59;2.55;;;1.55;;
77868;SDS011;67231;59.144;37.934;2024-03-08T08:15:25;2.53;;;1.42;;
77868;SDS011;67231;59.144;37.934;2024-03-08T08:17:54;3.47;;;1.50;;
77868;SDS011;67231;59.144;37.934;2024-03-08T08:20:21;2.22;;;1.30;;
77868;SDS011;67231;59.144;37.934;2024-03-08T08:22:49;2.88;;;1.38;;
77868;SDS011;67231;59.144;37.934;2024-03-08T08:25:15;1.48;;;0.90;;
77868;SDS011;67231;59.144;37.934;2024-03-08T08:27:47;2.10;;;1.10;;
77868;SDS011;67231;59.144;37.934;2024-03-08T08:30:13;2.65;;;1.15;;
77868;SDS011;67231;59.144;37.934;2024-03-08T08:32:40;2.80;;;1.20;;
77868;SDS011;67231;59.144;37.934;2024-03-08T08:35:08;3.10;;;1.10;;
77868;SDS011;67231;59.144;37.934;2024-03-08T08:37:38;3.25;;;1.35;;
77868;SDS011;67231;59.144;37.934;2024-03-08T08:40:05;1.33;;;0.90;;
77868;SDS011;67231;59.144;37.934;2024-03-08T08:42:38;2.17;;;1.08;;
77868;SDS011;67231;59.144;37.934;2024-03-08T08:45:05;1.58;;;0.98;;
77868;SDS011;67231;59.144;37.934;2024-03-08T08:47:36;2.72;;;1.30;;
77868;SDS011;67231;59.144;37.934;2024-03-08T08:50:03;4.30;;;2.15;;
77868;SDS011;67231;59.144;37.934;2024-03-08T08:52:33;2.65;;;1.20;;
77868;SDS011;67231;59.144;37.934;2024-03-08T08:55:00;2.47;;;1.38;;
77868;SDS011;67231;59.144;37.934;2024-03-08T08:57:30;1.60;;;0.98;;
77868;SDS011;67231;59.144;37.934;2024-03-08T08:59:59;2.42;;;1.10;;
77868;SDS011;67231;59.144;37.934;2024-03-08T09:02:26;6.82;;;2.60;;
77868;SDS011;67231;59.144;37.934;2024-03-08T09:04:53;2.97;;;1.55;;
77868;SDS011;67231;59.144;37.934;2024-03-08T09:07:19;2.83;;;1.40;;
77868;SDS011;67231;59.144;37.934;2024-03-08T09:09:46;2.97;;;1.23;;
77868;SDS011;67231;59.144;37.934;2024-03-08T09:12:13;2.90;;;1.88;;
77868;SDS011;67231;59.144;37.934;2024-03-08T09:14:40;2.30;;;1.52;;
77868;SDS011;67231;59.144;37.934;2024-03-08T09:17:07;3.58;;;1.38;;
77868;SDS011;67231;59.144;37.934;2024-03-08T09:19:35;2.05;;;1.20;;
77868;SDS011;67231;59.144;37.934;2024-03-08T09:22:03;1.08;;;0.60;;
77868;SDS011;67231;59.144;37.934;2024-03-08T09:24:30;1.90;;;0.80;;
77868;SDS011;67231;59.144;37.934;2024-03-08T09:26:57;2.35;;;1.30;;
77868;SDS011;67231;59.144;37.934;2024-03-08T09:29:29;3.08;;;1.48;;
77868;SDS011;67231;59.144;37.934;2024-03-08T09:31:56;3.78;;;1.60;;
77868;SDS011;67231;59.144;37.934;2024-03-08T09:34:22;4.13;;;1.52;;
77868;SDS011;67231;59.144;37.934;2024-03-08T09:36:49;2.63;;;1.45;;
77868;SDS011;67231;59.144;37.934;2024-03-08T09:39:18;6.72;;;2.10;;
77868;SDS011;67231;59.144;37.934;2024-03-08T09:41:47;2.60;;;1.23;;
77868;SDS011;67231;59.144;37.934;2024-03-08T09:44:14;8.40;;;3.00;;
77868;SDS011;67231;59.144;37.934;2024-03-08T09:46:42;6.88;;;2.17;;
77868;SDS011;67231;59.144;37.934;2024-03-08T09:49:08;3.83;;;1.45;;
77868;SDS011;67231;59.144;37.934;2024-03-08T09:51:37;2.47;;;1.45;;
77868;SDS011;67231;59.144;37.934;2024-03-08T09:54:09;3.60;;;1.73;;
77868;SDS011;67231;59.144;37.934;2024-03-08T09:56:35;6.30;;;2.35;;
77868;SDS011;67231;59.144;37.934;2024-03-08T09:59:02;3.17;;;1.80;;
77868;SDS011;67231;59.144;37.934;2024-03-08T10:01:31;2.40;;;1.00;;
77868;SDS011;67231;59.144;37.934;2024-03-08T10:03:58;4.65;;;1.50;;
77868;SDS011;67231;59.144;37.934;2024-03-08T10:06:28;5.28;;;1.90;;
77868;SDS011;67231;59.144;37.934;2024-03-08T10:08:57;2.78;;;1.60;;
77868;SDS011;67231;59.144;37.934;2024-03-08T10:11:32;3.38;;;1.67;;
77868;SDS011;67231;59.144;37.934;2024-03-08T10:14:00;4.70;;;1.65;;
77868;SDS011;67231;59.144;37.934;2024-03-08T10:16:27;5.45;;;2.40;;
77868;SDS011;67231;59.144;37.934;2024-03-08T10:21:23;3.78;;;1.60;;
77868;SDS011;67231;59.144;37.934;2024-03-08T10:23:54;1.08;;;0.75;;
77868;SDS011;67231;59.144;37.934;2024-03-08T10:26:25;4.88;;;1.10;;
77868;SDS011;67231;59.144;37.934;2024-03-08T10:28:55;2.28;;;1.10;;
77868;SDS011;67231;59.144;37.934;2024-03-08T10:31:27;7.82;;;1.33;;
77868;SDS011;67231;59.144;37.934;2024-03-08T10:33:57;1.48;;;1.00;;
77868;SDS011;67231;59.144;37.934;2024-03-08T10:36:23;6.07;;;1.45;;
77868;SDS011;67231;59.144;37.934;2024-03-08T10:38:51;2.50;;;1.20;;
77868;SDS011;67231;59.144;37.934;2024-03-08T10:41:19;3.55;;;0.98;;
77868;SDS011;67231;59.144;37.934;2024-03-08T10:44:10;5.40;;;1.05;;
77868;SDS011;67231;59.144;37.934;2024-03-08T10:46:47;2.30;;;1.13;;
77868;SDS011;67231;59.144;37.934;2024-03-08T10:49:30;2.83;;;1.10;;
77868;SDS011;67231;59.144;37.934;2024-03-08T10:52:04;2.67;;;1.30;;
77868;SDS011;67231;59.144;37.934;2024-03-08T10:54:34;3.40;;;1.08;;
77868;SDS011;67231;59.144;37.934;2024-03-08T10:57:06;3.00;;;1.30;;
77868;SDS011;67231;59.144;37.934;2024-03-08T10:59:34;1.80;;;0.95;;
77868;SDS011;67231;59.144;37.934;2024-03-08T11:02:02;2.30;;;1.00;;
77868;SDS011;67231;59.144;37.934;2024-03-08T11:04:33;2.05;;;0.73;;
77868;SDS011;67231;59.144;37.934;2024-03-08T11:07:06;1.95;;;0.90;;
77868;SDS011;67231;59.144;37.934;2024-03-08T11:09:36;3.17;;;1.42;;
77868;SDS011;67231;59.144;37.934;2024-03-08T11:12:24;2.50;;;1.25;;
77868;SDS011;67231;59.144;37.934;2024-03-08T11:14:53;4.45;;;1.80;;
77868;SDS011;67231;59.144;37.934;2024-03-08T11:20:00;2.72;;;1.30;;
77868;SDS011;67231;59.144;37.934;2024-03-08T11:22:32;3.70;;;1.75;;
77868;SDS011;67231;59.144;37.934;2024-03-08T11:25:01;4.95;;;2.15;;
77868;SDS011;67231;59.144;37.934;2024-03-08T11:27:30;2.80;;;1.40;;
77868;SDS011;67231;59.144;37.934;2024-03-08T11:30:02;3.13;;;1.55;;
77868;SDS011;67231;59.144;37.934;2024-03-08T11:32:38;4.13;;;1.52;;
77868;SDS011;67231;59.144;37.934;2024-03-08T11:35:08;2.42;;;1.10;;
77868;SDS011;67231;59.144;37.934;2024-03-08T11:37:49;4.35;;;1.52;;
77868;SDS011;67231;59.144;37.934;2024-03-08T11:40:16;1.85;;;0.88;;
77868;SDS011;67231;59.144;37.934;2024-03-08T11:42:45;7.50;;;2.25;;
77868;SDS011;67231;59.144;37.934;2024-03-08T11:45:18;3.60;;;1.63;;
77868;SDS011;67231;59.144;37.934;2024-03-08T11:47:47;4.70;;;1.63;;
77868;SDS011;67231;59.144;37.934;2024-03-08T11:50:15;3.97;;;1.63;;
77868;SDS011;67231;59.144;37.934;2024-03-08T11:52:43;3.22;;;1.48;;
77868;SDS011;67231;59.144;37.934;2024-03-08T11:55:10;3.95;;;1.75;;
77868;SDS011;67231;59.144;37.934;2024-03-08T11:57:38;7.72;;;3.30;;
77868;SDS011;67231;59.144;37.934;2024-03-08T12:00:05;1.45;;;0.60;;
77868;SDS011;67231;59.144;37.934;2024-03-08T12:02:34;2.83;;;1.00;;
77868;SDS011;67231;59.144;37.934;2024-03-08T12:05:06;2.50;;;0.85;;
77868;SDS011;67231;59.144;37.934;2024-03-08T12:07:35;1.48;;;0.63;;
77868;SDS011;67231;59.144;37.934;2024-03-08T12:10:19;1.30;;;0.55;;
77868;SDS011;67231;59.144;37.934;2024-03-08T12:12:52;1.42;;;0.60;;
77868;SDS011;67231;59.144;37.934;2024-03-08T12:15:20;1.92;;;0.90;;
77868;SDS011;67231;59.144;37.934;2024-03-08T12:17:49;0.47;;;0.20;;
77868;SDS011;67231;59.144;37.934;2024-03-08T12:20:17;2.20;;;0.70;;
77868;SDS011;67231;59.144;37.934;2024-03-08T12:22:47;1.63;;;0.80;;
77868;SDS011;67231;59.144;37.934;2024-03-08T12:25:15;1.92;;;0.60;;
77868;SDS011;67231;59.144;37.934;2024-03-08T12:27:42;1.05;;;0.60;;
77868;SDS011;67231;59.144;37.934;2024-03-08T12:30:25;2.00;;;0.80;;
77868;SDS011;67231;59.144;37.934;2024-03-08T12:32:56;2.20;;;0.77;;
77868;SDS011;67231;59.144;37.934;2024-03-08T12:35:28;4.03;;;0.80;;
77868;SDS011;67231;59.144;37.934;2024-03-08T12:37:58;1.50;;;0.75;;
77868;SDS011;67231;59.144;37.934;2024-03-08T12:40:26;6.50;;;2.00;;
77868;SDS011;67231;59.144;37.934;2024-03-08T12:42:54;3.25;;;1.48;;
77868;SDS011;67231;59.144;37.934;2024-03-08T12:45:22;4.88;;;1.55;;
77868;SDS011;67231;59.144;37.934;2024-03-08T12:47:53;2.03;;;0.82;;
77868;SDS011;67231;59.144;37.934;2024-03-08T12:50:20;3.75;;;1.27;;
77868;SDS011;67231;59.144;37.934;2024-03-08T12:52:48;3.35;;;1.65;;
77868;SDS011;67231;59.144;37.934;2024-03-08T12:55:15;4.40;;;1.73;;
77868;SDS011;67231;59.144;37.934;2024-03-08T12:57:42;4.57;;;1.83;;
77868;SDS011;67231;59.144;37.934;2024-03-08T13:00:09;3.55;;;1.55;;
77868;SDS011;67231;59.144;37.934;2024-03-08T13:02:39;2.45;;;0.80;;
77868;SDS011;67231;59.144;37.934;2024-03-08T13:05:06;2.05;;;0.70;;
77868;SDS011;67231;59.144;37.934;2024-03-08T13:07:35;2.00;;;0.90;;
77868;SDS011;67231;59.144;37.934;2024-03-08T13:10:03;4.85;;;0.80;;
77868;SDS011;67231;59.144;37.934;2024-03-08T13:12:30;1.20;;;0.73;;
77868;SDS011;67231;59.144;37.934;2024-03-08T13:14:56;1.85;;;0.55;;
77868;SDS011;67231;59.144;37.934;2024-03-08T13:17:23;3.15;;;1.48;;
77868;SDS011;67231;59.144;37.934;2024-03-08T13:19:50;3.70;;;1.60;;
77868;SDS011;67231;59.144;37.934;2024-03-08T13:22:16;3.95;;;1.90;;
77868;SDS011;67231;59.144;37.934;2024-03-08T13:24:44;2.92;;;1.27;;
77868;SDS011;67231;59.144;37.934;2024-03-08T13:27:11;3.10;;;1.40;;
77868;SDS011;67231;59.144;37.934;2024-03-08T13:29:48;2.30;;;1.13;;
77868;SDS011;67231;59.144;37.934;2024-03-08T13:32:15;2.50;;;1.25;;
77868;SDS011;67231;59.144;37.934;2024-03-08T13:34:45;3.97;;;1.50;;
77868;SDS011;67231;59.144;37.934;2024-03-08T13:37:13;2.20;;;1.23;;
77868;SDS011;67231;59.144;37.934;2024-03-08T13:39:42;3.30;;;1.70;;
77868;SDS011;67231;59.144;37.934;2024-03-08T13:42:11;2.80;;;1.30;;
77868;SDS011;67231;59.144;37.934;2024-03-08T13:44:39;3.25;;;1.35;;
77868;SDS011;67231;59.144;37.934;2024-03-08T13:47:10;5.05;;;1.80;;
77868;SDS011;67231;59.144;37.934;2024-03-08T13:49:37;2.25;;;1.30;;
77868;SDS011;67231;59.144;37.934;2024-03-08T13:52:07;2.55;;;1.15;;
77868;SDS011;67231;59.144;37.934;2024-03-08T13:57:09;5.55;;;1.80;;
77868;SDS011;67231;59.144;37.934;2024-03-08T13:59:39;5.32;;;1.90;;
77868;SDS011;67231;59.144;37.934;2024-03-08T14:02:06;6.05;;;2.05;;
77868;SDS011;67231;59.144;37.934;2024-03-08T14:04:33;4.75;;;1.50;;
77868;SDS011;67231;59.144;37.934;2024-03-08T14:07:00;3.08;;;1.58;;
77868;SDS011;67231;59.144;37.934;2024-03-08T14:09:29;7.28;;;2.47;;
77868;SDS011;67231;59.144;37.934;2024-03-08T14:11:57;4.93;;;1.83;;
77868;SDS011;67231;59.144;37.934;2024-03-08T14:14:24;5.95;;;2.25;;
77868;SDS011;67231;59.144;37.934;2024-03-08T14:16:51;11.80;;;3.60;;
77868;SDS011;67231;59.144;37.934;2024-03-08T14:19:24;6.93;;;2.50;;
77868;SDS011;67231;59.144;37.934;2024-03-08T14:21:51;12.30;;;4.10;;
77868;SDS011;67231;59.144;37.934;2024-03-08T14:24:19;12.63;;;3.90;;
77868;SDS011;67231;59.144;37.934;2024-03-08T14:26:46;6.45;;;2.17;;
77868;SDS011;67231;59.144;37.934;2024-03-08T14:29:17;12.10;;;3.70;;
77868;SDS011;67231;59.144;37.934;2024-03-08T14:34:16;5.70;;;1.75;;
77868;SDS011;67231;59.144;37.934;2024-03-08T14:36:46;12.60;;;3.78;;
77868;SDS011;67231;59.144;37.934;2024-03-08T14:39:12;5.47;;;1.50;;
77868;SDS011;67231;59.144;37.934;2024-03-08T14:41:39;14.93;;;2.33;;
77868;SDS011;67231;59.144;37.934;2024-03-08T14:44:05;2.55;;;1.20;;
77868;SDS011;67231;59.144;37.934;2024-03-08T14:46:31;3.10;;;1.45;;
77868;SDS011;67231;59.144;37.934;2024-03-08T14:48:59;4.55;;;1.45;;
77868;SDS011;67231;59.144;37.934;2024-03-08T14:51:25;6.15;;;2.38;;
77868;SDS011;67231;59.144;37.934;2024-03-08T14:54:01;1.60;;;0.77;;
77868;SDS011;67231;59.144;37.934;2024-03-08T14:56:27;4.10;;;1.35;;
77868;SDS011;67231;59.144;37.934;2024-03-08T14:58:54;2.67;;;1.50;;